sensor_id;sensor_type;location;lat;lon;timestamp;pressure;altitude;pressure_sealevel;temperature;humidity
8627;BME280;4351;51.422;6.794;2022-08-19T00:00:03;101011.53;;;19.47;100.00
8627;BME280;4351;51.422;6.794;2022-08-19T00:02:34;101012.56;;;19.46;100.00
8627;BME280;4351;51.422;6.794;2022-08-19T00:05:03;101010.09;;;19.42;100.00
8627;BME280;4351;51.422;6.794;2022-08-19T00:07:31;101014.84;;;19.40;100.00
8627;BME280;4351;51.422;6.794;2022-08-19T00:10:00;101014.00;;;19.30;100.00
8627;BME280;4351;51.422;6.794;2022-08-19T00:12:28;101014.88;;;19.30;100.00
8627;BME280;4351;51.422;6.794;2022-08-19T00:14:56;101016.16;;;19.36;100.00
8627;BME280;4351;51.422;6.794;2022-08-19T00:17:24;101024.34;;;19.36;100.00
8627;BME280;4351;51.422;6.794;2022-08-19T00:19:54;101014.41;;;19.35;100.00
8627;BME280;4351;51.422;6.794;2022-08-19T00:22:23;101007.81;;;19.28;100.00
8627;BME280;4351;51.422;6.794;2022-08-19T00:24:53;101010.09;;;19.23;100.00
8627;BME280;4351;51.422;6.794;2022-08-19T00:27:23;101007.38;;;19.23;100.00
8627;BME280;4351;51.422;6.794;2022-08-19T00:29:52;101004.34;;;19.26;100.00
8627;BME280;4351;51.422;6.794;2022-08-19T00:32:21;101005.94;;;19.18;100.00
8627;BME280;4351;51.422;6.794;2022-08-19T00:34:49;101004.19;;;19.17;100.00
8627;BME280;4351;51.422;6.794;2022-08-19T00:37:22;101001.44;;;19.17;100.00
8627;BME280;4351;51.422;6.794;2022-08-19T00:39:52;101003.75;;;19.12;100.00
8627;BME280;4351;51.422;6.794;2022-08-19T00:42:22;100999.28;;;19.11;100.00
8627;BME280;4351;51.422;6.794;2022-08-19T00:44:55;100994.09;;;19.08;100.00
8627;BME280;4351;51.422;6.794;2022-08-19T00:47:23;100994.38;;;19.05;100.00
8627;BME280;4351;51.422;6.794;2022-08-19T00:49:54;100992.94;;;19.01;100.00
8627;BME280;4351;51.422;6.794;2022-08-19T00:52:27;100993.94;;;19.10;100.00
8627;BME280;4351;51.422;6.794;2022-08-19T00:54:57;101001.13;;;19.01;100.00
8627;BME280;4351;51.422;6.794;2022-08-19T00:57:30;100998.81;;;18.96;100.00
8627;BME280;4351;51.422;6.794;2022-08-19T01:00:01;100998.41;;;19.01;100.00
8627;BME280;4351;51.422;6.794;2022-08-19T01:02:31;100998.97;;;18.94;100.00
8627;BME280;4351;51.422;6.794;2022-08-19T01:05:03;100996.97;;;18.96;100.00
8627;BME280;4351;51.422;6.794;2022-08-19T01:07:34;100995.22;;;18.95;100.00
8627;BME280;4351;51.422;6.794;2022-08-19T01:10:09;100987.19;;;18.84;100.00
8627;BME280;4351;51.422;6.794;2022-08-19T01:12:38;100992.50;;;18.86;100.00
8627;BME280;4351;51.422;6.794;2022-08-19T01:15:10;100986.88;;;18.77;100.00
8627;BME280;4351;51.422;6.794;2022-08-19T01:17:39;100986.59;;;18.80;100.00
8627;BME280;4351;51.422;6.794;2022-08-19T01:20:11;100985.16;;;18.76;100.00
8627;BME280;4351;51.422;6.794;2022-08-19T01:22:44;100996.94;;;18.77;100.00
8627;BME280;4351;51.422;6.794;2022-08-19T01:25:13;100988.03;;;18.65;100.00
8627;BME280;4351;51.422;6.794;2022-08-19T01:27:45;100980.66;;;18.65;100.00
8627;BME280;4351;51.422;6.794;2022-08-19T01:30:19;100976.06;;;18.66;100.00
8627;BME280;4351;51.422;6.794;2022-08-19T01:32:49;100980.41;;;18.68;100.00
8627;BME280;4351;51.422;6.794;2022-08-19T01:35:18;100975.22;;;18.75;100.00
8627;BME280;4351;51.422;6.794;2022-08-19T01:37:50;100970.91;;;18.72;100.00
8627;BME280;4351;51.422;6.794;2022-08-19T01:40:20;100964.16;;;18.77;100.00
8627;BME280;4351;51.422;6.794;2022-08-19T01:42:49;100959.97;;;18.63;100.00
8627;BME280;4351;51.422;6.794;2022-08-19T01:45:20;100965.56;;;18.61;100.00
8627;BME280;4351;51.422;6.794;2022-08-19T01:47:48;100960.81;;;18.63;100.00
8627;BME280;4351;51.422;6.794;2022-08-19T01:50:28;100967.72;;;18.57;100.00
8627;BME280;4351;51.422;6.794;2022-08-19T01:52:58;100953.75;;;18.60;100.00
8627;BME280;4351;51.422;6.794;2022-08-19T01:55:34;100957.06;;;18.54;100.00
8627;BME280;4351;51.422;6.794;2022-08-19T01:58:09;100958.81;;;18.55;100.00
8627;BME280;4351;51.422;6.794;2022-08-19T02:00:40;100960.38;;;18.48;100.00
8627;BME280;4351;51.422;6.794;2022-08-19T02:03:08;100957.47;;;18.49;100.00
8627;BME280;4351;51.422;6.794;2022-08-19T02:05:38;100957.78;;;18.46;100.00
8627;BME280;4351;51.422;6.794;2022-08-19T02:08:10;100952.16;;;18.48;100.00
8627;BME280;4351;51.422;6.794;2022-08-19T02:10:41;100949.75;;;18.45;100.00
8627;BME280;4351;51.422;6.794;2022-08-19T02:13:11;100948.88;;;18.44;100.00
8627;BME280;4351;51.422;6.794;2022-08-19T02:15:40;100942.84;;;18.41;100.00
8627;BME280;4351;51.422;6.794;2022-08-19T02:18:09;100938.94;;;18.43;100.00
8627;BME280;4351;51.422;6.794;2022-08-19T02:20:39;100943.41;;;18.44;100.00
8627;BME280;4351;51.422;6.794;2022-08-19T02:23:10;100936.19;;;18.43;100.00
8627;BME280;4351;51.422;6.794;2022-08-19T02:25:42;100935.63;;;18.40;100.00
8627;BME280;4351;51.422;6.794;2022-08-19T02:28:11;100937.06;;;18.34;100.00
8627;BME280;4351;51.422;6.794;2022-08-19T02:30:45;100940.06;;;18.31;100.00
8627;BME280;4351;51.422;6.794;2022-08-19T02:33:15;100936.47;;;18.30;100.00
8627;BME280;4351;51.422;6.794;2022-08-19T02:35:44;100945.38;;;18.32;100.00
8627;BME280;4351;51.422;6.794;2022-08-19T02:38:15;100943.38;;;18.34;100.00
8627;BME280;4351;51.422;6.794;2022-08-19T02:40:57;100945.53;;;18.31;100.00
8627;BME280;4351;51.422;6.794;2022-08-19T02:43:27;100936.59;;;18.29;100.00
8627;BME280;4351;51.422;6.794;2022-08-19T02:46:00;100944.09;;;18.36;100.00
8627;BME280;4351;51.422;6.794;2022-08-19T02:48:28;100922.97;;;18.29;100.00
8627;BME280;4351;51.422;6.794;2022-08-19T02:50:56;100921.38;;;18.26;100.00
8627;BME280;4351;51.422;6.794;2022-08-19T02:53:28;100936.69;;;18.17;100.00
8627;BME280;4351;51.422;6.794;2022-08-19T02:55:56;100937.31;;;18.21;100.00
8627;BME280;4351;51.422;6.794;2022-08-19T02:58:25;100946.09;;;18.24;100.00
8627;BME280;4351;51.422;6.794;2022-08-19T03:00:55;100956.28;;;18.22;100.00
8627;BME280;4351;51.422;6.794;2022-08-19T03:03:24;100951.97;;;18.20;100.00
8627;BME280;4351;51.422;6.794;2022-08-19T03:06:03;100952.53;;;18.23;100.00
8627;BME280;4351;51.422;6.794;2022-08-19T03:08:33;100962.47;;;18.24;100.00
8627;BME280;4351;51.422;6.794;2022-08-19T03:11:01;100961.16;;;18.19;100.00
8627;BME280;4351;51.422;6.794;2022-08-19T03:13:30;100964.91;;;18.27;100.00
8627;BME280;4351;51.422;6.794;2022-08-19T03:15:58;100959.16;;;18.31;100.00
8627;BME280;4351;51.422;6.794;2022-08-19T03:18:26;100953.97;;;18.27;100.00
8627;BME280;4351;51.422;6.794;2022-08-19T03:20:55;100958.00;;;18.23;100.00
8627;BME280;4351;51.422;6.794;2022-08-19T03:23:23;100946.22;;;18.23;100.00
8627;BME280;4351;51.422;6.794;2022-08-19T03:25:53;100948.53;;;18.27;100.00
8627;BME280;4351;51.422;6.794;2022-08-19T03:28:43;100946.53;;;18.30;100.00
8627;BME280;4351;51.422;6.794;2022-08-19T03:31:24;100953.00;;;18.29;100.00
8627;BME280;4351;51.422;6.794;2022-08-19T03:34:14;100954.53;;;18.21;100.00
8627;BME280;4351;51.422;6.794;2022-08-19T03:36:44;100954.84;;;18.18;100.00
8627;BME280;4351;51.422;6.794;2022-08-19T03:39:13;100957.41;;;18.20;100.00
8627;BME280;4351;51.422;6.794;2022-08-19T03:41:44;100952.81;;;18.20;100.00
8627;BME280;4351;51.422;6.794;2022-08-19T03:44:15;100949.38;;;18.18;100.00
8627;BME280;4351;51.422;6.794;2022-08-19T03:46:46;100955.25;;;18.23;100.00
8627;BME280;4351;51.422;6.794;2022-08-19T03:49:15;100944.50;;;18.22;100.00
8627;BME280;4351;51.422;6.794;2022-08-19T03:51:45;100940.47;;;18.26;100.00
8627;BME280;4351;51.422;6.794;2022-08-19T03:54:15;100935.88;;;18.26;100.00
8627;BME280;4351;51.422;6.794;2022-08-19T03:56:48;100934.88;;;18.27;100.00
8627;BME280;4351;51.422;6.794;2022-08-19T03:59:19;100935.63;;;18.30;100.00
8627;BME280;4351;51.422;6.794;2022-08-19T04:01:47;100936.34;;;18.32;100.00
8627;BME280;4351;51.422;6.794;2022-08-19T04:04:16;100928.69;;;18.25;100.00
8627;BME280;4351;51.422;6.794;2022-08-19T04:06:45;100923.22;;;18.25;100.00
8627;BME280;4351;51.422;6.794;2022-08-19T04:09:15;100926.56;;;18.29;100.00
8627;BME280;4351;51.422;6.794;2022-08-19T04:11:47;100924.69;;;18.30;100.00
8627;BME280;4351;51.422;6.794;2022-08-19T04:14:17;100910.09;;;18.09;100.00
8627;BME280;4351;51.422;6.794;2022-08-19T04:16:47;100908.13;;;18.21;100.00
8627;BME280;4351;51.422;6.794;2022-08-19T04:19:17;100898.22;;;18.20;100.00
8627;BME280;4351;51.422;6.794;2022-08-19T04:21:49;100900.81;;;18.22;100.00
8627;BME280;4351;51.422;6.794;2022-08-19T04:24:18;100905.06;;;18.14;100.00
8627;BME280;4351;51.422;6.794;2022-08-19T04:26:49;100907.28;;;18.21;100.00
8627;BME280;4351;51.422;6.794;2022-08-19T04:29:19;100912.25;;;18.15;100.00
8627;BME280;4351;51.422;6.794;2022-08-19T04:31:49;100900.75;;;18.12;100.00
8627;BME280;4351;51.422;6.794;2022-08-19T04:34:20;100895.56;;;18.09;100.00
8627;BME280;4351;51.422;6.794;2022-08-19T04:36:51;100899.31;;;18.08;100.00
8627;BME280;4351;51.422;6.794;2022-08-19T04:39:23;100900.03;;;18.10;100.00
8627;BME280;4351;51.422;6.794;2022-08-19T04:42:15;100905.50;;;18.10;100.00
8627;BME280;4351;51.422;6.794;2022-08-19T04:45:01;100909.38;;;18.17;100.00
8627;BME280;4351;51.422;6.794;2022-08-19T04:47:31;100904.94;;;18.16;100.00
8627;BME280;4351;51.422;6.794;2022-08-19T04:50:19;100904.78;;;18.08;100.00
8627;BME280;4351;51.422;6.794;2022-08-19T04:52:50;100907.94;;;18.13;100.00
8627;BME280;4351;51.422;6.794;2022-08-19T04:55:19;100906.56;;;18.19;100.00
8627;BME280;4351;51.422;6.794;2022-08-19T04:57:49;100910.84;;;18.21;100.00
8627;BME280;4351;51.422;6.794;2022-08-19T05:00:17;100907.13;;;18.22;100.00
8627;BME280;4351;51.422;6.794;2022-08-19T05:02:46;100908.81;;;18.13;100.00
8627;BME280;4351;51.422;6.794;2022-08-19T05:05:17;100921.06;;;18.19;100.00
8627;BME280;4351;51.422;6.794;2022-08-19T05:07:46;100920.28;;;18.17;100.00
8627;BME280;4351;51.422;6.794;2022-08-19T05:10:14;100924.81;;;18.18;100.00
8627;BME280;4351;51.422;6.794;2022-08-19T05:12:43;100928.69;;;18.25;100.00
8627;BME280;4351;51.422;6.794;2022-08-19T05:15:13;100931.16;;;18.29;100.00
8627;BME280;4351;51.422;6.794;2022-08-19T05:17:41;100929.13;;;18.31;100.00
8627;BME280;4351;51.422;6.794;2022-08-19T05:20:30;100928.25;;;18.20;100.00
8627;BME280;4351;51.422;6.794;2022-08-19T05:23:15;100939.31;;;18.19;100.00
8627;BME280;4351;51.422;6.794;2022-08-19T05:25:48;100943.06;;;18.27;100.00
8627;BME280;4351;51.422;6.794;2022-08-19T05:28:17;100951.41;;;18.26;100.00
8627;BME280;4351;51.422;6.794;2022-08-19T05:30:47;100948.25;;;18.31;100.00
8627;BME280;4351;51.422;6.794;2022-08-19T05:33:17;100947.59;;;18.17;100.00
8627;BME280;4351;51.422;6.794;2022-08-19T05:35:46;100952.00;;;18.30;100.00
8627;BME280;4351;51.422;6.794;2022-08-19T05:38:16;100938.50;;;18.38;100.00
8627;BME280;4351;51.422;6.794;2022-08-19T05:40:46;100937.22;;;18.42;100.00
8627;BME280;4351;51.422;6.794;2022-08-19T05:43:18;100937.06;;;18.44;100.00
8627;BME280;4351;51.422;6.794;2022-08-19T05:45:48;100928.31;;;18.50;100.00
8627;BME280;4351;51.422;6.794;2022-08-19T05:48:26;100929.75;;;18.54;100.00
8627;BME280;4351;51.422;6.794;2022-08-19T05:50:54;100936.53;;;18.60;100.00
8627;BME280;4351;51.422;6.794;2022-08-19T05:53:28;100934.06;;;18.57;100.00
8627;BME280;4351;51.422;6.794;2022-08-19T05:55:56;100938.53;;;18.58;100.00
8627;BME280;4351;51.422;6.794;2022-08-19T05:58:24;100953.06;;;18.68;100.00
8627;BME280;4351;51.422;6.794;2022-08-19T06:00:55;100953.38;;;18.75;100.00
8627;BME280;4351;51.422;6.794;2022-08-19T06:03:23;100946.06;;;18.76;100.00
8627;BME280;4351;51.422;6.794;2022-08-19T06:05:51;100949.34;;;18.79;100.00
8627;BME280;4351;51.422;6.794;2022-08-19T06:08:21;100943.88;;;18.79;100.00
8627;BME280;4351;51.422;6.794;2022-08-19T06:11:15;100951.22;;;18.79;100.00
8627;BME280;4351;51.422;6.794;2022-08-19T06:13:44;100952.06;;;18.89;100.00
8627;BME280;4351;51.422;6.794;2022-08-19T06:16:16;100964.59;;;18.92;100.00
8627;BME280;4351;51.422;6.794;2022-08-19T06:18:49;100967.19;;;18.93;100.00
8627;BME280;4351;51.422;6.794;2022-08-19T06:21:20;100955.38;;;19.03;100.00
8627;BME280;4351;51.422;6.794;2022-08-19T06:23:48;100962.28;;;19.07;100.00
8627;BME280;4351;51.422;6.794;2022-08-19T06:26:19;100953.81;;;19.10;100.00
8627;BME280;4351;51.422;6.794;2022-08-19T06:28:48;100955.53;;;19.11;100.00
8627;BME280;4351;51.422;6.794;2022-08-19T06:31:21;100967.47;;;19.10;100.00
8627;BME280;4351;51.422;6.794;2022-08-19T06:33:50;100966.50;;;19.21;100.00
8627;BME280;4351;51.422;6.794;2022-08-19T06:36:21;100963.34;;;19.26;100.00
8627;BME280;4351;51.422;6.794;2022-08-19T06:38:54;100963.03;;;19.29;100.00
8627;BME280;4351;51.422;6.794;2022-08-19T06:41:23;100961.88;;;19.32;100.00
8627;BME280;4351;51.422;6.794;2022-08-19T06:43:52;100970.22;;;19.40;100.00
8627;BME280;4351;51.422;6.794;2022-08-19T06:46:23;100953.97;;;19.38;100.00
8627;BME280;4351;51.422;6.794;2022-08-19T06:48:52;100950.63;;;19.45;100.00
8627;BME280;4351;51.422;6.794;2022-08-19T06:51:21;100949.47;;;19.47;100.00
8627;BME280;4351;51.422;6.794;2022-08-19T06:53:52;100945.28;;;19.53;100.00
8627;BME280;4351;51.422;6.794;2022-08-19T06:56:23;100948.72;;;19.55;100.00
8627;BME280;4351;51.422;6.794;2022-08-19T06:58:57;100947.16;;;19.62;100.00
8627;BME280;4351;51.422;6.794;2022-08-19T07:01:27;100944.06;;;19.75;100.00
8627;BME280;4351;51.422;6.794;2022-08-19T07:03:56;100943.09;;;19.76;100.00
8627;BME280;4351;51.422;6.794;2022-08-19T07:06:24;100938.44;;;19.77;100.00
8627;BME280;4351;51.422;6.794;2022-08-19T07:09:11;100947.00;;;20.02;100.00
8627;BME280;4351;51.422;6.794;2022-08-19T07:11:44;100942.13;;;19.96;100.00
8627;BME280;4351;51.422;6.794;2022-08-19T07:14:13;100949.03;;;20.00;100.00
8627;BME280;4351;51.422;6.794;2022-08-19T07:16:48;100935.53;;;19.88;100.00
8627;BME280;4351;51.422;6.794;2022-08-19T07:19:19;100939.13;;;19.89;100.00
8627;BME280;4351;51.422;6.794;2022-08-19T07:21:49;100935.97;;;19.94;100.00
8627;BME280;4351;51.422;6.794;2022-08-19T07:24:18;100946.13;;;20.02;100.00
8627;BME280;4351;51.422;6.794;2022-08-19T07:26:46;100943.06;;;20.15;100.00
8627;BME280;4351;51.422;6.794;2022-08-19T07:29:18;100954.19;;;20.13;100.00
8627;BME280;4351;51.422;6.794;2022-08-19T07:31:51;100953.28;;;20.23;100.00
8627;BME280;4351;51.422;6.794;2022-08-19T07:34:23;100958.41;;;20.36;100.00
8627;BME280;4351;51.422;6.794;2022-08-19T07:36:53;100963.03;;;20.35;100.00
8627;BME280;4351;51.422;6.794;2022-08-19T07:39:24;100961.25;;;20.44;100.00
8627;BME280;4351;51.422;6.794;2022-08-19T07:41:53;100955.22;;;20.59;100.00
8627;BME280;4351;51.422;6.794;2022-08-19T07:44:22;100961.81;;;20.66;100.00
8627;BME280;4351;51.422;6.794;2022-08-19T07:46:54;100965.28;;;20.68;100.00
8627;BME280;4351;51.422;6.794;2022-08-19T07:49:24;100972.16;;;20.72;100.00
8627;BME280;4351;51.422;6.794;2022-08-19T07:51:54;100979.69;;;20.88;100.00
8627;BME280;4351;51.422;6.794;2022-08-19T07:54:24;100989.22;;;20.84;100.00
8627;BME280;4351;51.422;6.794;2022-08-19T07:56:53;101004.25;;;21.08;100.00
8627;BME280;4351;51.422;6.794;2022-08-19T07:59:22;101013.34;;;21.27;100.00
8627;BME280;4351;51.422;6.794;2022-08-19T08:01:52;101010.81;;;21.34;100.00
8627;BME280;4351;51.422;6.794;2022-08-19T08:04:21;101015.31;;;21.17;100.00
8627;BME280;4351;51.422;6.794;2022-08-19T08:07:07;101020.56;;;21.10;100.00
8627;BME280;4351;51.422;6.794;2022-08-19T08:09:58;101027.59;;;21.31;100.00
8627;BME280;4351;51.422;6.794;2022-08-19T08:12:31;101034.88;;;21.40;100.00
8627;BME280;4351;51.422;6.794;2022-08-19T08:15:05;101045.44;;;21.35;100.00
8627;BME280;4351;51.422;6.794;2022-08-19T08:17:39;101034.47;;;21.35;100.00
8627;BME280;4351;51.422;6.794;2022-08-19T08:20:15;101037.44;;;21.42;100.00
8627;BME280;4351;51.422;6.794;2022-08-19T08:22:47;101036.28;;;21.44;100.00
8627;BME280;4351;51.422;6.794;2022-08-19T08:25:33;101049.00;;;21.45;100.00
8627;BME280;4351;51.422;6.794;2022-08-19T08:28:05;101046.25;;;21.45;100.00
8627;BME280;4351;51.422;6.794;2022-08-19T08:30:43;101051.09;;;21.52;100.00
8627;BME280;4351;51.422;6.794;2022-08-19T08:33:19;101064.34;;;21.56;100.00
8627;BME280;4351;51.422;6.794;2022-08-19T08:36:01;101061.75;;;21.55;100.00
8627;BME280;4351;51.422;6.794;2022-08-19T08:38:35;101063.53;;;21.64;100.00
8627;BME280;4351;51.422;6.794;2022-08-19T08:41:11;101061.19;;;21.69;100.00
8627;BME280;4351;51.422;6.794;2022-08-19T08:43:50;101067.75;;;21.77;100.00
8627;BME280;4351;51.422;6.794;2022-08-19T08:46:24;101069.72;;;21.66;100.00
8627;BME280;4351;51.422;6.794;2022-08-19T08:49:07;101076.63;;;21.70;100.00
8627;BME280;4351;51.422;6.794;2022-08-19T08:51:51;101076.63;;;21.70;100.00
8627;BME280;4351;51.422;6.794;2022-08-19T08:54:30;101068.44;;;21.79;100.00
8627;BME280;4351;51.422;6.794;2022-08-19T08:57:07;101060.34;;;21.87;100.00
8627;BME280;4351;51.422;6.794;2022-08-19T08:59:40;101060.34;;;21.87;100.00
8627;BME280;4351;51.422;6.794;2022-08-19T09:02:09;101067.09;;;22.01;100.00
8627;BME280;4351;51.422;6.794;2022-08-19T09:04:39;101068.72;;;22.12;100.00
8627;BME280;4351;51.422;6.794;2022-08-19T09:07:38;101064.03;;;22.31;100.00
8627;BME280;4351;51.422;6.794;2022-08-19T09:10:19;101062.91;;;22.15;100.00
8627;BME280;4351;51.422;6.794;2022-08-19T09:12:57;101058.16;;;22.26;100.00
8627;BME280;4351;51.422;6.794;2022-08-19T09:15:40;101057.81;;;22.29;100.00
8627;BME280;4351;51.422;6.794;2022-08-19T09:18:14;101069.22;;;22.43;100.00
8627;BME280;4351;51.422;6.794;2022-08-19T09:20:48;101061.06;;;22.59;100.00
8627;BME280;4351;51.422;6.794;2022-08-19T09:23:20;101061.72;;;22.53;100.00
8627;BME280;4351;51.422;6.794;2022-08-19T09:25:53;101056.94;;;22.55;100.00
8627;BME280;4351;51.422;6.794;2022-08-19T09:28:24;101063.94;;;22.93;100.00
8627;BME280;4351;51.422;6.794;2022-08-19T09:30:53;101062.63;;;23.05;100.00
8627;BME280;4351;51.422;6.794;2022-08-19T09:33:22;101066.00;;;22.91;100.00
8627;BME280;4351;51.422;6.794;2022-08-19T09:36:01;101062.22;;;22.92;100.00
8627;BME280;4351;51.422;6.794;2022-08-19T09:38:35;101067.06;;;22.98;100.00
8627;BME280;4351;51.422;6.794;2022-08-19T09:41:22;101067.22;;;22.88;100.00
8627;BME280;4351;51.422;6.794;2022-08-19T09:43:56;101060.38;;;23.01;100.00
8627;BME280;4351;51.422;6.794;2022-08-19T09:46:29;101061.16;;;22.84;100.00
8627;BME280;4351;51.422;6.794;2022-08-19T09:49:19;101059.00;;;23.13;100.00
8627;BME280;4351;51.422;6.794;2022-08-19T09:51:57;101058.81;;;23.15;100.00
8627;BME280;4351;51.422;6.794;2022-08-19T09:54:36;101050.56;;;22.98;100.00
8627;BME280;4351;51.422;6.794;2022-08-19T09:57:39;101063.25;;;22.91;100.00
8627;BME280;4351;51.422;6.794;2022-08-19T10:00:41;101064.41;;;22.80;100.00
8627;BME280;4351;51.422;6.794;2022-08-19T10:03:16;101060.78;;;22.71;100.00
8627;BME280;4351;51.422;6.794;2022-08-19T10:05:47;101062.94;;;23.02;100.00
8627;BME280;4351;51.422;6.794;2022-08-19T10:08:23;101065.38;;;23.14;100.00
8627;BME280;4351;51.422;6.794;2022-08-19T10:10:54;101056.94;;;23.15;100.00
8627;BME280;4351;51.422;6.794;2022-08-19T10:13:27;101060.88;;;23.13;100.00
8627;BME280;4351;51.422;6.794;2022-08-19T10:15:57;101059.56;;;23.34;100.00
8627;BME280;4351;51.422;6.794;2022-08-19T10:18:29;101068.31;;;23.46;100.00
8627;BME280;4351;51.422;6.794;2022-08-19T10:21:06;101057.50;;;23.27;100.00
8627;BME280;4351;51.422;6.794;2022-08-19T10:23:41;101049.38;;;23.17;100.00
8627;BME280;4351;51.422;6.794;2022-08-19T10:26:17;101047.69;;;23.16;100.00
8627;BME280;4351;51.422;6.794;2022-08-19T10:28:47;101037.19;;;23.20;100.00
8627;BME280;4351;51.422;6.794;2022-08-19T10:31:18;101045.13;;;23.57;100.00
8627;BME280;4351;51.422;6.794;2022-08-19T10:34:10;101038.94;;;23.71;100.00
8627;BME280;4351;51.422;6.794;2022-08-19T10:36:53;101042.72;;;23.62;100.00
8627;BME280;4351;51.422;6.794;2022-08-19T10:39:30;101039.09;;;23.45;100.00
8627;BME280;4351;51.422;6.794;2022-08-19T10:42:09;101032.75;;;23.52;100.00
8627;BME280;4351;51.422;6.794;2022-08-19T10:44:50;101031.72;;;23.53;100.00
8627;BME280;4351;51.422;6.794;2022-08-19T10:47:20;101036.53;;;23.43;100.00
8627;BME280;4351;51.422;6.794;2022-08-19T10:49:54;101038.09;;;23.54;100.00
8627;BME280;4351;51.422;6.794;2022-08-19T10:52:44;101048.22;;;23.70;100.00
8627;BME280;4351;51.422;6.794;2022-08-19T10:55:23;101040.31;;;23.59;100.00
8627;BME280;4351;51.422;6.794;2022-08-19T10:58:11;101035.13;;;23.89;100.00
8627;BME280;4351;51.422;6.794;2022-08-19T11:00:41;101033.03;;;23.99;100.00
8627;BME280;4351;51.422;6.794;2022-08-19T11:03:13;101027.56;;;23.91;100.00
8627;BME280;4351;51.422;6.794;2022-08-19T11:05:44;101028.22;;;23.85;100.00
8627;BME280;4351;51.422;6.794;2022-08-19T11:08:13;101043.00;;;24.26;100.00
8627;BME280;4351;51.422;6.794;2022-08-19T11:10:52;101032.31;;;24.14;100.00
8627;BME280;4351;51.422;6.794;2022-08-19T11:13:27;101037.31;;;24.10;100.00
8627;BME280;4351;51.422;6.794;2022-08-19T11:15:57;101040.25;;;24.09;100.00
8627;BME280;4351;51.422;6.794;2022-08-19T11:18:36;101047.56;;;24.42;100.00
8627;BME280;4351;51.422;6.794;2022-08-19T11:21:06;101044.69;;;24.35;100.00
8627;BME280;4351;51.422;6.794;2022-08-19T11:23:35;101043.59;;;24.44;100.00
8627;BME280;4351;51.422;6.794;2022-08-19T11:26:05;101043.97;;;24.41;100.00
8627;BME280;4351;51.422;6.794;2022-08-19T11:28:33;101033.53;;;24.03;100.00
8627;BME280;4351;51.422;6.794;2022-08-19T11:31:01;101035.94;;;24.23;100.00
8627;BME280;4351;51.422;6.794;2022-08-19T11:33:31;101030.72;;;24.20;100.00
8627;BME280;4351;51.422;6.794;2022-08-19T11:35:59;101026.91;;;24.38;100.00
8627;BME280;4351;51.422;6.794;2022-08-19T11:38:28;101038.56;;;24.56;100.00
8627;BME280;4351;51.422;6.794;2022-08-19T11:40:58;101029.63;;;24.54;100.00
8627;BME280;4351;51.422;6.794;2022-08-19T11:43:29;101042.38;;;24.87;100.00
8627;BME280;4351;51.422;6.794;2022-08-19T11:46:05;101033.59;;;24.84;100.00
8627;BME280;4351;51.422;6.794;2022-08-19T11:48:34;101034.78;;;24.89;100.00
8627;BME280;4351;51.422;6.794;2022-08-19T11:51:05;101022.50;;;24.60;100.00
8627;BME280;4351;51.422;6.794;2022-08-19T11:53:34;101022.72;;;24.82;100.00
8627;BME280;4351;51.422;6.794;2022-08-19T11:56:03;101023.34;;;24.92;100.00
8627;BME280;4351;51.422;6.794;2022-08-19T11:58:33;101014.34;;;25.07;100.00
8627;BME280;4351;51.422;6.794;2022-08-19T12:01:05;101021.31;;;24.86;100.00
8627;BME280;4351;51.422;6.794;2022-08-19T12:03:35;101019.59;;;25.17;100.00
8627;BME280;4351;51.422;6.794;2022-08-19T12:06:05;101022.81;;;25.29;100.00
8627;BME280;4351;51.422;6.794;2022-08-19T12:08:34;101027.81;;;25.02;100.00
8627;BME280;4351;51.422;6.794;2022-08-19T12:11:03;101016.47;;;25.44;100.00
8627;BME280;4351;51.422;6.794;2022-08-19T12:16:59;101021.03;;;25.52;100.00
8627;BME280;4351;51.422;6.794;2022-08-19T12:19:28;101020.50;;;25.56;100.00
8627;BME280;4351;51.422;6.794;2022-08-19T12:21:59;101008.94;;;25.76;100.00
8627;BME280;4351;51.422;6.794;2022-08-19T12:24:30;101011.38;;;25.56;100.00
8627;BME280;4351;51.422;6.794;2022-08-19T12:26:59;101008.28;;;25.74;100.00
8627;BME280;4351;51.422;6.794;2022-08-19T12:29:29;101009.03;;;25.44;100.00
8627;BME280;4351;51.422;6.794;2022-08-19T12:32:02;101008.34;;;25.27;100.00
8627;BME280;4351;51.422;6.794;2022-08-19T12:58:07;101000.88;;;25.90;100.00
8627;BME280;4351;51.422;6.794;2022-08-19T13:00:57;101000.50;;;26.23;100.00
8627;BME280;4351;51.422;6.794;2022-08-19T13:03:25;100997.34;;;25.96;100.00
8627;BME280;4351;51.422;6.794;2022-08-19T13:05:57;101001.53;;;25.92;100.00
8627;BME280;4351;51.422;6.794;2022-08-19T13:08:34;100997.13;;;25.82;100.00
8627;BME280;4351;51.422;6.794;2022-08-19T13:16:41;101002.19;;;26.24;100.00
8627;BME280;4351;51.422;6.794;2022-08-19T13:19:52;100990.72;;;26.58;100.00
8627;BME280;4351;51.422;6.794;2022-08-19T13:32:50;100983.63;;;26.70;100.00
8627;BME280;4351;51.422;6.794;2022-08-19T13:51:26;100968.97;;;26.70;100.00
8627;BME280;4351;51.422;6.794;2022-08-19T19:00:39;101015.13;;;24.04;100.00
8627;BME280;4351;51.422;6.794;2022-08-19T19:03:28;101020.69;;;23.87;100.00
8627;BME280;4351;51.422;6.794;2022-08-19T19:05:56;101019.97;;;23.93;100.00
8627;BME280;4351;51.422;6.794;2022-08-19T19:08:25;101026.50;;;23.92;100.00
8627;BME280;4351;51.422;6.794;2022-08-19T19:10:54;101026.19;;;23.87;100.00
8627;BME280;4351;51.422;6.794;2022-08-19T19:13:24;101029.63;;;23.89;100.00
8627;BME280;4351;51.422;6.794;2022-08-19T19:15:56;101025.84;;;23.82;100.00
8627;BME280;4351;51.422;6.794;2022-08-19T19:18:25;101035.13;;;23.81;100.00
8627;BME280;4351;51.422;6.794;2022-08-19T19:20:54;101033.41;;;23.88;100.00
8627;BME280;4351;51.422;6.794;2022-08-19T19:23:23;101038.22;;;23.86;100.00
8627;BME280;4351;51.422;6.794;2022-08-19T19:25:51;101031.34;;;23.82;100.00
8627;BME280;4351;51.422;6.794;2022-08-19T19:28:20;101033.75;;;23.76;100.00
8627;BME280;4351;51.422;6.794;2022-08-19T19:30:52;101037.53;;;23.84;100.00
8627;BME280;4351;51.422;6.794;2022-08-19T19:33:25;101037.72;;;23.74;100.00